Time;durP1;ratioP1;P1;durP2;ratioP2;P2;SDS_P1;SDS_P2;PMS_P1;PMS_P2;Temp;Humidity;BMP_temperature;BMP_pressure;BME280_temperature;BME280_humidity;BME280_pressure;Samples;Min_cycle;Max_cycle;Signal;HPM_P1;HPM_P2
2022/06/27 00:00:53;;;;;;;11.02;9.25;;;;;;;19.20;66.19;101451.84;4981093;28;20034;-70
2022/06/27 00:03:18;;;;;;;10.95;8.80;;;;;;;19.21;66.13;101448.72;4992283;28;20031;-70
2022/06/27 00:05:44;;;;;;;9.48;8.38;;;;;;;19.20;66.31;101441.41;4992366;28;20027;-69
2022/06/27 00:08:09;;;;;;;9.57;8.57;;;;;;;19.20;65.88;101443.41;4991989;28;20065;-69
2022/06/27 00:10:34;;;;;;;10.70;8.77;;;;;;;19.20;66.02;101449.03;4983484;28;20030;-70
2022/06/27 00:13:02;;;;;;;11.77;8.77;;;;;;;19.20;65.94;101444.22;4986979;28;20537;-70
2022/06/27 00:15:28;;;;;;;9.70;8.10;;;;;;;19.17;66.30;101443.97;4984046;28;20037;-70
2022/06/27 00:17:53;;;;;;;9.85;8.85;;;;;;;19.15;65.99;101452.72;4991844;28;20097;-70
2022/06/27 00:20:18;;;;;;;10.18;8.98;;;;;;;19.15;66.09;101449.09;4984293;28;20397;-70
2022/06/27 00:22:44;;;;;;;9.88;8.43;;;;;;;19.15;65.86;101449.91;4972587;28;20081;-69
2022/06/27 00:25:11;;;;;;;11.45;8.65;;;;;;;19.10;66.35;101452.78;4973166;28;20943;-70
2022/06/27 00:27:37;;;;;;;11.70;9.13;;;;;;;19.12;66.41;101467.38;4971258;28;20441;-70
2022/06/27 00:30:03;;;;;;;11.90;8.95;;;;;;;19.10;66.34;101469.66;4970065;28;20043;-69
2022/06/27 00:32:29;;;;;;;12.63;9.38;;;;;;;19.09;66.48;101468.81;4961842;28;20081;-70
2022/06/27 00:34:54;;;;;;;9.82;8.38;;;;;;;19.10;66.31;101473.31;4980623;28;20034;-70
2022/06/27 00:37:19;;;;;;;10.23;8.90;;;;;;;19.12;66.33;101473.00;4991271;28;20027;-69
2022/06/27 00:39:45;;;;;;;13.32;9.15;;;;;;;19.12;66.06;101464.56;4989758;28;20027;-70
2022/06/27 00:42:10;;;;;;;10.63;9.52;;;;;;;19.10;65.49;101467.69;4991663;28;20026;-70
2022/06/27 00:44:39;;;;;;;14.32;9.82;;;;;;;19.06;65.72;101477.00;4992392;28;20024;-69
2022/06/27 00:47:07;;;;;;;12.25;9.30;;;;;;;19.06;65.62;101480.69;4986316;28;20489;-70
2022/06/27 00:49:34;;;;;;;13.30;9.93;;;;;;;19.09;65.50;101477.25;4990804;28;20026;-69
2022/06/27 00:51:59;;;;;;;10.95;9.23;;;;;;;19.09;65.46;101482.03;4959659;28;20477;-69
2022/06/27 00:54:25;;;;;;;12.73;9.65;;;;;;;19.09;65.28;101484.84;4986062;28;20034;-70
2022/06/27 00:56:51;;;;;;;12.07;8.82;;;;;;;19.06;65.80;101486.31;4978158;28;20359;-70
2022/06/27 00:59:17;;;;;;;12.77;9.57;;;;;;;19.03;65.67;101483.25;4981507;28;20031;-69
2022/06/27 01:01:43;;;;;;;11.63;9.43;;;;;;;19.08;65.68;101477.56;4973937;28;20042;-69
2022/06/27 01:04:08;;;;;;;12.73;9.73;;;;;;;19.10;65.28;101476.13;4991154;28;20034;-70
2022/06/27 01:06:33;;;;;;;12.70;9.77;;;;;;;19.07;65.36;101481.50;4986719;28;20065;-70
2022/06/27 01:08:59;;;;;;;11.80;9.60;;;;;;;19.09;65.30;101480.06;4991867;28;20027;-69
2022/06/27 01:11:24;;;;;;;11.50;10.00;;;;;;;19.07;65.07;101487.13;4979484;28;20776;-70
2022/06/27 01:13:50;;;;;;;10.90;9.50;;;;;;;19.04;65.47;101482.94;4986423;28;20038;-70
2022/06/27 01:16:16;;;;;;;13.27;9.43;;;;;;;19.04;65.91;101485.75;4978307;28;20504;-69
2022/06/27 01:18:42;;;;;;;11.30;9.20;;;;;;;19.03;65.76;101486.88;4991274;28;20105;-69
2022/06/27 01:21:08;;;;;;;10.65;9.30;;;;;;;19.02;65.99;101482.41;4991440;28;20161;-69
2022/06/27 01:23:34;;;;;;;14.88;9.57;;;;;;;19.04;65.98;101499.81;4991584;28;20038;-70
2022/06/27 01:26:00;;;;;;;13.25;9.85;;;;;;;19.01;66.26;101493.94;4976818;28;20037;-70
2022/06/27 01:28:25;;;;;;;13.52;9.80;;;;;;;19.00;65.96;101489.44;4976323;28;20027;-69
2022/06/27 01:30:51;;;;;;;11.40;9.93;;;;;;;19.00;66.33;101486.63;4990185;28;20058;-70
2022/06/27 01:33:16;;;;;;;11.13;10.02;;;;;;;19.00;66.15;101481.00;4971565;28;20145;-70
2022/06/27 01:35:41;;;;;;;12.00;9.68;;;;;;;18.95;66.46;101479.09;4975393;28;20034;-69
2022/06/27 01:38:07;;;;;;;12.30;9.38;;;;;;;18.99;66.55;101468.09;4973753;28;20110;-69
2022/06/27 01:40:33;;;;;;;10.52;9.10;;;;;;;19.00;66.43;101461.31;4975537;28;20146;-70
2022/06/27 01:42:58;;;;;;;11.15;9.48;;;;;;;18.95;66.32;101450.13;4976064;28;20366;-70
2022/06/27 01:45:23;;;;;;;11.77;9.73;;;;;;;18.98;66.38;101441.94;4973075;28;20069;-70
2022/06/27 01:47:49;;;;;;;12.93;10.73;;;;;;;18.98;66.56;101441.94;4975245;28;20035;-70
2022/06/27 01:50:18;;;;;;;11.43;10.23;;;;;;;18.96;66.93;101443.34;4988982;28;20394;-70
2022/06/27 01:52:48;;;;;;;12.35;10.57;;;;;;;18.96;66.58;101448.97;4934986;29;20081;-69
2022/06/27 01:55:13;;;;;;;13.95;10.90;;;;;;;18.95;66.78;101442.50;4937914;29;20040;-69
2022/06/27 01:57:39;;;;;;;11.88;9.98;;;;;;;18.96;66.53;101440.53;4940329;29;20039;-69
2022/06/27 02:00:06;;;;;;;12.27;10.23;;;;;;;18.91;67.13;101437.78;4964114;28;20039;-69
2022/06/27 02:02:33;;;;;;;12.48;10.90;;;;;;;18.96;66.87;101441.38;4950381;28;20020;-70
2022/06/27 02:04:58;;;;;;;14.48;10.20;;;;;;;18.96;66.59;101435.75;4964302;28;20121;-70
2022/06/27 02:07:23;;;;;;;12.55;10.43;;;;;;;18.93;66.61;101441.94;4970790;28;20073;-70
2022/06/27 02:09:48;;;;;;;11.43;10.23;;;;;;;18.94;66.74;101437.16;4966155;28;20057;-70
2022/06/27 02:12:20;;;;;;;13.23;10.60;;;;;;;18.92;66.98;101437.47;4975589;28;20484;-69
2022/06/27 02:14:53;;;;;;;13.73;10.88;;;;;;;18.93;67.12;101432.69;4966398;28;20027;-70
2022/06/27 02:17:19;;;;;;;15.70;10.75;;;;;;;18.89;67.15;101430.44;4975275;28;20027;-70
2022/06/27 02:19:45;;;;;;;16.95;10.18;;;;;;;18.91;67.31;101427.34;4974824;28;20022;-70
2022/06/27 02:22:11;;;;;;;13.65;10.63;;;;;;;18.86;67.59;101422.63;4967185;28;20034;-70
2022/06/27 02:24:37;;;;;;;12.77;10.77;;;;;;;18.87;67.48;101409.41;4961988;28;20047;-70
2022/06/27 02:27:03;;;;;;;14.30;11.05;;;;;;;18.89;67.38;101418.34;4975176;28;20035;-69
2022/06/27 02:29:29;;;;;;;11.93;10.20;;;;;;;18.86;67.40;101407.69;4963265;28;20022;-70
2022/06/27 02:31:54;;;;;;;13.55;10.23;;;;;;;18.88;67.30;101411.91;4970822;28;20505;-70
2022/06/27 02:34:20;;;;;;;13.88;11.30;;;;;;;18.87;67.49;101418.66;4963661;28;20025;-70
2022/06/27 02:36:47;;;;;;;12.82;10.15;;;;;;;18.87;67.66;101421.47;4955779;28;20031;-70
2022/06/27 02:39:16;;;;;;;13.30;10.38;;;;;;;18.84;67.62;101418.41;4969442;28;20030;-70
2022/06/27 02:41:44;;;;;;;11.80;10.05;;;;;;;18.81;67.63;101417.03;4958191;28;20043;-70
2022/06/27 02:44:11;;;;;;;11.55;10.38;;;;;;;18.78;67.94;101414.78;4968896;28;20041;-70
2022/06/27 02:46:38;;;;;;;11.07;9.98;;;;;;;18.77;68.12;101410.31;4961964;28;20498;-70
2022/06/27 02:49:04;;;;;;;14.07;10.27;;;;;;;18.76;67.95;101405.00;4971285;28;20556;-69
2022/06/27 02:51:42;;;;;;;15.00;11.20;;;;;;;18.80;67.62;101400.47;4981789;28;20038;-69
2022/06/27 02:54:16;;;;;;;14.02;10.77;;;;;;;18.76;67.88;101394.56;4992407;28;20466;-70
2022/06/27 02:56:57;;;;;;;12.75;10.80;;;;;;;18.79;68.01;101379.09;4976184;28;20035;-69
2022/06/27 02:59:26;;;;;;;18.52;11.70;;;;;;;18.74;68.20;101379.97;4993721;28;20030;-69
2022/06/27 03:01:55;;;;;;;13.40;11.10;;;;;;;18.71;68.23;101376.94;4986493;28;20049;-70
2022/06/27 03:04:21;;;;;;;14.10;11.95;;;;;;;18.70;68.30;101378.00;4970248;28;20031;-70
2022/06/27 03:06:49;;;;;;;12.77;11.02;;;;;;;18.68;67.95;101369.88;4972092;28;20034;-70
2022/06/27 03:09:15;;;;;;;12.70;11.40;;;;;;;18.65;68.25;101367.66;4968731;28;20045;-70
2022/06/27 03:11:41;;;;;;;13.23;11.18;;;;;;;18.64;68.51;101368.78;4962891;28;20023;-70
2022/06/27 03:14:06;;;;;;;15.10;11.80;;;;;;;18.61;68.46;101366.56;4972820;28;20085;-70
2022/06/27 03:16:32;;;;;;;12.85;11.32;;;;;;;18.60;68.21;101365.72;4974345;28;20104;-69
2022/06/27 03:18:57;;;;;;;16.38;11.50;;;;;;;18.57;68.10;101371.09;4973404;28;20035;-70
2022/06/27 03:21:23;;;;;;;16.25;11.35;;;;;;;18.56;68.21;101375.88;4973999;28;20038;-70
2022/06/27 03:23:48;;;;;;;12.45;11.02;;;;;;;18.54;68.24;101380.94;4977840;28;20041;-70
2022/06/27 03:26:15;;;;;;;15.10;10.90;;;;;;;18.52;68.10;101374.78;4985559;28;20027;-70
2022/06/27 03:28:41;;;;;;;14.23;10.95;;;;;;;18.48;68.15;101373.72;4971169;28;20038;-69
2022/06/27 03:31:06;;;;;;;13.52;11.63;;;;;;;18.51;68.33;101378.75;4980041;28;20035;-70
2022/06/27 03:33:31;;;;;;;14.70;11.23;;;;;;;18.48;68.27;101372.88;4974021;28;20394;-69
2022/06/27 03:35:57;;;;;;;13.30;11.20;;;;;;;18.42;68.39;101371.22;4993535;28;20035;-70
2022/06/27 03:38:22;;;;;;;13.98;11.60;;;;;;;18.40;68.48;101377.97;4982776;28;20037;-71
2022/06/27 03:40:47;;;;;;;13.05;11.50;;;;;;;18.36;68.39;101370.44;4991245;28;20089;-70
2022/06/27 03:43:13;;;;;;;16.52;11.27;;;;;;;18.37;68.26;101375.75;4993587;28;20033;-70
2022/06/27 03:45:38;;;;;;;15.02;12.10;;;;;;;18.32;68.40;101370.19;4978645;28;20050;-70
2022/06/27 03:48:04;;;;;;;13.88;11.38;;;;;;;18.33;68.42;101365.41;4993023;28;20037;-70
2022/06/27 03:50:30;;;;;;;13.80;11.68;;;;;;;18.31;68.45;101362.03;4993373;28;20109;-70
2022/06/27 03:52:56;;;;;;;14.50;11.20;;;;;;;18.28;68.55;101371.91;4985076;28;20066;-70
2022/06/27 03:55:23;;;;;;;14.02;11.70;;;;;;;18.30;68.39;101378.06;4988223;28;20041;-70
2022/06/27 03:57:54;;;;;;;13.57;11.48;;;;;;;18.28;68.51;101374.72;4975767;28;20054;-70
2022/06/27 04:00:21;;;;;;;11.98;10.77;;;;;;;18.24;68.70;101384.03;4992063;28;20391;-70
2022/06/27 04:02:46;;;;;;;13.82;11.07;;;;;;;18.26;68.48;101395.78;4992679;28;20030;-70
2022/06/27 04:05:12;;;;;;;13.73;11.52;;;;;;;18.24;68.51;101401.72;4992449;28;20784;-70
2022/06/27 04:07:38;;;;;;;12.73;11.25;;;;;;;18.21;68.88;101395.84;4980901;28;20038;-69
2022/06/27 04:10:04;;;;;;;12.40;11.18;;;;;;;18.21;69.11;101378.97;4992813;28;20023;-69
2022/06/27 04:12:30;;;;;;;14.88;11.35;;;;;;;18.21;69.29;101382.63;4992275;28;20417;-69
2022/06/27 04:14:55;;;;;;;14.43;11.80;;;;;;;18.29;68.88;101389.59;4978509;28;20113;-69
2022/06/27 04:17:20;;;;;;;16.25;11.57;;;;;;;18.30;69.45;101382.84;4988151;28;20033;-69
2022/06/27 04:19:46;;;;;;;13.75;12.35;;;;;;;18.33;69.26;101387.88;4992126;28;20081;-69
2022/06/27 04:22:11;;;;;;;17.35;11.93;;;;;;;18.32;69.54;101369.34;4981311;28;20026;-69
2022/06/27 04:24:37;;;;;;;16.13;12.60;;;;;;;18.34;69.58;101358.63;4985115;28;20031;-69
2022/06/27 04:27:04;;;;;;;15.23;13.63;;;;;;;18.34;69.72;101370.72;4982415;28;20474;-70
2022/06/27 04:29:30;;;;;;;16.15;13.50;;;;;;;18.36;69.73;101354.41;4967874;28;20489;-70
2022/06/27 04:31:56;;;;;;;17.85;14.32;;;;;;;18.36;69.74;101354.41;4972946;28;20595;-70
2022/06/27 04:34:22;;;;;;;18.80;14.55;;;;;;;18.39;69.71;101342.59;4987365;28;20022;-69
2022/06/27 04:36:47;;;;;;;17.50;15.43;;;;;;;18.39;69.67;101325.72;4986728;28;20061;-69
2022/06/27 04:39:15;;;;;;;16.58;14.65;;;;;;;18.43;69.72;101319.50;4986133;28;20027;-69
2022/06/27 04:41:43;;;;;;;17.60;15.70;;;;;;;18.42;69.71;101315.00;4990904;28;20032;-69
2022/06/27 04:44:09;;;;;;;20.02;15.93;;;;;;;18.44;69.96;101321.19;4992459;28;20025;-69
2022/06/27 04:46:34;;;;;;;19.25;15.93;;;;;;;18.44;70.08;101324.84;4991869;28;20462;-69
2022/06/27 04:49:00;;;;;;;16.80;14.32;;;;;;;18.50;69.74;101331.22;4975339;28;20034;-69
2022/06/27 04:51:25;;;;;;;19.00;14.68;;;;;;;18.49;70.07;101323.94;4983722;28;20070;-70
2022/06/27 04:53:51;;;;;;;17.08;14.13;;;;;;;18.49;69.72;101338.00;4992235;28;20022;-70
2022/06/27 04:56:17;;;;;;;19.85;13.88;;;;;;;18.49;70.23;101346.44;4987785;28;20030;-70
2022/06/27 04:58:42;;;;;;;17.08;14.85;;;;;;;18.48;70.31;101344.75;4991966;28;20014;-70
2022/06/27 05:01:08;;;;;;;18.73;14.38;;;;;;;18.51;69.94;101350.63;4977709;28;20027;-70
2022/06/27 05:03:33;;;;;;;17.75;15.90;;;;;;;18.49;69.72;101346.44;4971296;28;20030;-69
2022/06/27 05:05:59;;;;;;;19.25;15.52;;;;;;;18.49;69.51;101336.03;4986953;28;20047;-70
2022/06/27 05:08:24;;;;;;;20.02;16.00;;;;;;;18.49;69.67;101333.22;4975629;28;20053;-70
2022/06/27 05:10:49;;;;;;;21.38;16.73;;;;;;;18.49;69.30;101329.56;4984370;28;20038;-70
2022/06/27 05:13:15;;;;;;;19.40;16.90;;;;;;;18.47;69.46;101321.44;4989569;28;20661;-70
2022/06/27 05:15:40;;;;;;;19.52;16.73;;;;;;;18.47;69.91;101314.94;4989800;28;20508;-70
2022/06/27 05:18:06;;;;;;;19.35;17.35;;;;;;;18.45;69.93;101312.44;4992913;28;20101;-70
2022/06/27 05:20:31;;;;;;;19.75;17.15;;;;;;;18.44;69.95;101321.19;4983223;28;20088;-70
2022/06/27 05:23:02;;;;;;;19.08;17.08;;;;;;;18.45;69.70;101336.91;4987400;28;20094;-70
2022/06/27 05:25:28;;;;;;;19.63;17.52;;;;;;;18.44;69.64;101340.88;4986045;28;20413;-69
2022/06/27 05:27:56;;;;;;;20.13;17.08;;;;;;;18.45;69.43;101340.56;4995272;28;20022;-70
2022/06/27 05:30:21;;;;;;;19.75;16.70;;;;;;;18.44;69.56;101332.44;4974265;28;20023;-70
2022/06/27 05:32:47;;;;;;;20.52;18.33;;;;;;;18.42;69.81;101343.13;4987678;28;20038;-70
2022/06/27 05:35:12;;;;;;;22.60;17.25;;;;;;;18.46;69.57;101358.25;4986393;28;20027;-69
2022/06/27 05:37:38;;;;;;;19.80;16.70;;;;;;;18.43;69.77;101396.25;4983389;28;20058;-70
2022/06/27 05:40:06;;;;;;;22.75;18.48;;;;;;;18.45;69.70;101407.19;4977572;28;20113;-70
2022/06/27 05:42:34;;;;;;;21.88;18.40;;;;;;;18.46;69.91;101420.94;4976909;28;20114;-70
2022/06/27 05:45:01;;;;;;;22.20;17.73;;;;;;;18.50;69.79;101435.25;4970450;28;20031;-70
2022/06/27 05:47:26;;;;;;;19.60;17.35;;;;;;;18.50;69.46;101441.69;4979299;28;20042;-68
2022/06/27 05:49:52;;;;;;;21.77;19.33;;;;;;;18.47;69.56;101447.06;4983691;28;20393;-69
2022/06/27 05:52:17;;;;;;;20.90;18.75;;;;;;;18.51;69.55;101456.59;4974166;28;20501;-68
2022/06/27 05:54:44;;;;;;;9.35;8.43;;;;;;;18.67;68.51;101461.00;4973039;28;20452;-70
2022/06/27 05:57:11;;;;;;;16.92;15.13;;;;;;;18.61;69.20;101468.63;4969124;28;20044;-69
2022/06/27 05:59:37;;;;;;;12.18;10.10;;;;;;;18.77;68.31;101463.75;4979811;28;20130;-68
2022/06/27 06:02:03;;;;;;;11.68;10.45;;;;;;;18.88;68.06;101459.72;4970355;28;20110;-68
2022/06/27 06:04:30;;;;;;;13.55;12.05;;;;;;;18.91;68.16;101449.03;4972926;28;20509;-68
2022/06/27 06:06:55;;;;;;;14.77;12.30;;;;;;;18.95;68.00;101442.50;4973831;28;20033;-68
2022/06/27 06:09:21;;;;;;;15.13;11.70;;;;;;;19.00;68.03;101424.75;4972616;28;20098;-68
2022/06/27 06:11:48;;;;;;;14.20;12.60;;;;;;;19.04;68.12;101425.81;4977312;28;20263;-67
2022/06/27 06:14:16;;;;;;;14.15;12.30;;;;;;;19.07;68.21;101425.25;4973223;28;20051;-68
2022/06/27 06:16:42;;;;;;;16.40;13.48;;;;;;;19.10;68.06;101436.75;4973317;28;20046;-68
2022/06/27 06:19:08;;;;;;;16.52;14.27;;;;;;;19.10;68.15;101433.94;4974914;28;20073;-68
2022/06/27 06:21:33;;;;;;;18.58;16.23;;;;;;;19.08;67.96;101447.44;4973850;28;20043;-67
2022/06/27 06:23:59;;;;;;;16.83;13.88;;;;;;;19.14;68.52;101451.06;4974123;28;20039;-66
2022/06/27 06:26:24;;;;;;;17.05;15.35;;;;;;;19.17;68.89;101474.94;4973740;28;20023;-68
2022/06/27 06:28:50;;;;;;;18.13;15.13;;;;;;;19.21;68.85;101476.84;4976578;28;20070;-68
2022/06/27 06:31:21;;;;;;;17.95;14.60;;;;;;;19.17;68.30;101472.13;4979510;28;20045;-67
2022/06/27 06:33:51;;;;;;;17.77;14.63;;;;;;;19.17;67.80;101472.13;4969578;28;20038;-67
2022/06/27 06:36:19;;;;;;;19.00;15.95;;;;;;;19.16;67.91;101467.63;4966108;28;20024;-67
2022/06/27 06:38:45;;;;;;;19.73;15.60;;;;;;;19.22;68.43;101466.47;4977080;28;20080;-67
2022/06/27 06:41:10;;;;;;;17.20;15.32;;;;;;;19.24;68.29;101453.75;4975227;28;20670;-68
2022/06/27 06:43:36;;;;;;;16.10;14.40;;;;;;;19.26;68.37;101437.44;4982149;28;20030;-68
2022/06/27 06:46:02;;;;;;;19.63;14.52;;;;;;;19.25;68.39;101418.84;4982617;28;20019;-66
2022/06/27 06:48:27;;;;;;;18.60;14.02;;;;;;;19.28;68.25;101400.53;4973260;28;20494;-64
2022/06/27 06:50:54;;;;;;;20.23;17.90;;;;;;;19.20;68.40;101402.00;4968729;28;20766;-66
2022/06/27 06:53:20;;;;;;;18.80;15.63;;;;;;;19.22;68.14;101401.75;4985179;28;20026;-66
2022/06/27 06:55:45;;;;;;;17.90;14.45;;;;;;;19.28;67.97;101398.53;4976165;28;20101;-65
2022/06/27 06:58:11;;;;;;;17.25;15.18;;;;;;;19.30;67.62;101384.19;4967690;28;20737;-66
2022/06/27 07:00:38;;;;;;;21.23;17.15;;;;;;;19.25;67.47;101396.31;4960388;28;20522;-66
2022/06/27 07:03:04;;;;;;;18.70;15.32;;;;;;;19.32;67.79;101404.41;4977177;28;20050;-66
2022/06/27 07:05:31;;;;;;;19.48;15.15;;;;;;;19.37;67.45;101408.03;4962280;28;20031;-66
2022/06/27 07:07:58;;;;;;;19.73;15.48;;;;;;;19.42;67.77;101407.13;4961574;28;20042;-67
2022/06/27 07:10:25;;;;;;;17.27;15.52;;;;;;;19.43;67.26;101405.16;4978714;28;20470;-68
2022/06/27 07:12:51;;;;;;;20.45;15.52;;;;;;;19.43;67.58;101385.44;4966030;28;20500;-68
2022/06/27 07:15:17;;;;;;;17.50;15.77;;;;;;;19.44;66.98;101387.94;4958853;28;20036;-68
2022/06/27 07:17:45;;;;;;;16.77;14.93;;;;;;;19.50;67.34;101402.81;4970311;28;20031;-67
2022/06/27 07:20:12;;;;;;;16.38;14.25;;;;;;;19.49;67.33;101418.00;4976812;28;20081;-69
2022/06/27 07:22:39;;;;;;;21.92;16.88;;;;;;;19.44;67.48;101412.44;4981643;28;20048;-69
2022/06/27 07:25:04;;;;;;;18.10;13.93;;;;;;;19.53;67.04;101433.16;4985682;28;20089;-70
2022/06/27 07:27:31;;;;;;;16.70;14.05;;;;;;;19.56;67.31;101446.66;4986711;28;20034;-68
2022/06/27 07:29:56;;;;;;;17.45;13.70;;;;;;;19.56;66.93;101453.13;4973546;28;20489;-68
2022/06/27 07:32:22;;;;;;;17.23;14.10;;;;;;;19.62;67.04;101434.25;4961034;28;20054;-68
2022/06/27 07:34:48;;;;;;;19.25;14.40;;;;;;;19.64;67.10;101433.94;4975278;28;20042;-67
2022/06/27 07:37:14;;;;;;;19.52;13.77;;;;;;;19.76;66.58;101439.97;4983514;28;20050;-67
2022/06/27 07:39:40;;;;;;;15.25;13.05;;;;;;;19.83;66.32;101438.47;4989343;28;20034;-67
2022/06/27 07:42:06;;;;;;;16.75;12.90;;;;;;;19.90;66.03;101440.09;4968806;28;20035;-62
2022/06/27 07:44:34;;;;;;;16.75;13.93;;;;;;;19.93;65.93;101453.56;4964441;28;20127;-67
2022/06/27 07:47:01;;;;;;;15.38;13.70;;;;;;;19.97;66.04;101446.19;4968259;28;20035;-66
2022/06/27 07:49:26;;;;;;;15.35;13.07;;;;;;;20.02;65.53;101448.94;4972508;28;20038;-68
2022/06/27 07:51:52;;;;;;;13.85;12.43;;;;;;;20.08;65.95;101456.16;4971186;28;20047;-68
2022/06/27 07:54:19;;;;;;;14.70;12.70;;;;;;;20.08;65.74;101462.66;4954708;28;20043;-67
2022/06/27 07:56:46;;;;;;;16.00;12.05;;;;;;;20.06;65.64;101466.91;4953453;29;20371;-67
2022/06/27 07:59:13;;;;;;;15.93;13.25;;;;;;;20.00;65.56;101460.53;4960574;28;20034;-69
2022/06/27 08:01:39;;;;;;;15.18;11.18;;;;;;;20.06;65.78;101470.56;4953437;29;20027;-69
2022/06/27 08:04:06;;;;;;;12.48;11.13;;;;;;;20.13;65.37;101481.47;4967283;28;20027;-69
2022/06/27 08:06:31;;;;;;;13.50;10.57;;;;;;;20.18;65.32;101472.94;4967720;28;20532;-68
2022/06/27 08:09:05;;;;;;;16.65;10.55;;;;;;;20.23;65.27;101467.22;4965425;28;20043;-67
2022/06/27 08:11:33;;;;;;;14.93;11.05;;;;;;;20.22;65.23;101468.38;4953452;28;20097;-68
2022/06/27 08:14:03;;;;;;;19.33;13.65;;;;;;;20.16;65.23;101489.34;4966892;28;20023;-63
2022/06/27 08:16:29;;;;;;;17.55;11.40;;;;;;;20.21;65.04;101472.34;4956904;28;20379;-69
2022/06/27 08:18:55;;;;;;;12.90;10.82;;;;;;;20.23;64.95;101464.41;4971925;28;20363;-69
2022/06/27 08:21:25;;;;;;;13.80;10.15;;;;;;;20.26;64.81;101468.63;4957034;28;20112;-69
2022/06/27 08:23:51;;;;;;;14.23;10.70;;;;;;;20.29;64.61;101470.84;4961075;28;20081;-71
2022/06/27 08:26:17;;;;;;;10.98;9.88;;;;;;;20.28;64.35;101472.81;4969231;28;20034;-75
2022/06/27 08:28:44;;;;;;;11.85;9.45;;;;;;;20.28;64.35;101494.53;4957241;28;20050;-74
2022/06/27 08:31:12;;;;;;;14.93;10.68;;;;;;;20.26;64.53;101494.81;4970141;28;20023;-72
2022/06/27 08:33:39;;;;;;;12.18;8.77;;;;;;;20.26;64.24;101496.81;4955773;28;20031;-75
2022/06/27 08:36:05;;;;;;;10.50;8.65;;;;;;;20.25;64.25;101503.59;4957820;28;20042;-77
2022/06/27 08:38:39;;;;;;;12.13;7.95;;;;;;;20.26;63.86;101503.28;4969757;28;20488;-74
2022/06/27 08:41:06;;;;;;;10.55;8.00;;;;;;;20.24;64.06;101496.25;4966541;28;20026;-73
2022/06/27 08:43:33;;;;;;;11.18;8.00;;;;;;;20.26;63.88;101497.63;4970841;28;20126;-71
2022/06/27 08:45:59;;;;;;;9.85;7.07;;;;;;;20.28;63.65;101503.84;4970085;28;20066;-72
2022/06/27 08:48:24;;;;;;;9.95;6.53;;;;;;;20.25;63.25;101504.44;4969470;28;20482;-69
2022/06/27 08:50:50;;;;;;;9.02;6.82;;;;;;;20.28;63.09;101503.00;4959614;28;20089;-72
2022/06/27 08:53:17;;;;;;;9.35;7.40;;;;;;;20.27;63.30;101496.50;4961111;28;20031;-71
2022/06/27 08:55:45;;;;;;;8.35;7.20;;;;;;;20.23;63.04;101494.59;4977598;28;20033;-71
2022/06/27 08:58:11;;;;;;;7.55;6.28;;;;;;;20.28;63.00;101497.34;4969777;28;20130;-65
2022/06/27 09:00:40;;;;;;;9.02;6.40;;;;;;;20.32;63.05;101499.25;4965974;28;20497;-68
2022/06/27 09:03:09;;;;;;;9.52;6.70;;;;;;;20.38;63.12;101514.13;4960400;28;20454;-66
2022/06/27 09:05:36;;;;;;;8.98;6.22;;;;;;;20.43;62.29;101530.94;4965081;28;20150;-68
2022/06/27 09:08:03;;;;;;;10.40;5.72;;;;;;;20.54;61.73;101531.69;4965634;28;20065;-67
2022/06/27 09:10:31;;;;;;;9.98;5.90;;;;;;;20.58;61.29;101521.47;4967689;28;20078;-68
2022/06/27 09:13:02;;;;;;;8.05;5.75;;;;;;;20.60;61.15;101524.84;4967757;28;20039;-66
2022/06/27 09:15:46;;;;;;;8.13;5.45;;;;;;;20.71;61.13;101529.19;4981477;28;20067;-70
2022/06/27 09:18:15;;;;;;;7.43;5.22;;;;;;;20.78;60.59;101506.22;4973257;28;20030;-65
2022/06/27 09:20:53;;;;;;;6.90;4.93;;;;;;;20.77;60.87;101508.22;4972964;28;20557;-65
2022/06/27 09:23:54;;;;;;;7.82;5.75;;;;;;;20.74;61.24;101502.34;4972412;28;20041;-65
2022/06/27 09:26:30;;;;;;;10.25;5.35;;;;;;;20.84;60.52;101517.13;4973591;28;20107;-66
2022/06/27 09:29:07;;;;;;;5.55;5.00;;;;;;;20.84;60.49;101527.59;4990988;28;20037;-68
2022/06/27 09:31:39;;;;;;;7.82;5.15;;;;;;;20.98;60.15;101521.97;4974145;28;20433;-67
2022/06/27 09:34:08;;;;;;;8.68;4.88;;;;;;;21.00;59.91;101523.38;4991233;28;20050;-66
2022/06/27 09:36:35;;;;;;;6.50;4.85;;;;;;;20.94;59.85;101526.56;4989698;28;20066;-67
2022/06/27 09:39:02;;;;;;;7.13;5.47;;;;;;;20.93;60.04;101513.59;4983905;28;20019;-68
2022/06/27 09:41:32;;;;;;;6.70;4.20;;;;;;;20.99;60.17;101503.94;4986301;28;20034;-68
2022/06/27 09:44:03;;;;;;;7.95;6.38;;;;;;;20.84;60.13;101511.47;4989772;28;20058;-67
2022/06/27 09:46:35;;;;;;;8.80;6.25;;;;;;;20.89;59.82;101516.19;4988845;28;20109;-68
2022/06/27 09:49:01;;;;;;;6.63;4.80;;;;;;;21.05;60.11;101509.16;4970638;28;20035;-67
2022/06/27 09:51:27;;;;;;;6.97;4.43;;;;;;;21.10;59.72;101513.88;4976526;28;20372;-68
2022/06/27 09:53:58;;;;;;;8.02;6.57;;;;;;;21.01;58.97;101507.25;4973861;28;20022;-67
2022/06/27 09:56:25;;;;;;;6.97;5.72;;;;;;;20.99;59.30;101507.59;4971968;28;20023;-67
2022/06/27 09:58:50;;;;;;;7.05;4.70;;;;;;;21.00;59.37;101499.94;4953868;28;20047;-69
2022/06/27 10:01:17;;;;;;;8.88;6.85;;;;;;;20.87;59.51;101518.50;4974181;28;20031;-68
2022/06/27 10:03:43;;;;;;;10.20;6.50;;;;;;;20.82;59.49;101499.66;4974838;28;20034;-69
2022/06/27 10:06:10;;;;;;;7.57;4.40;;;;;;;20.94;59.98;101496.34;4967584;28;20043;-68
2022/06/27 10:08:36;;;;;;;6.22;4.72;;;;;;;20.90;59.49;101491.63;4973972;28;20031;-69
2022/06/27 10:11:02;;;;;;;6.05;4.43;;;;;;;20.99;59.39;101487.00;4973648;28;20034;-68
2022/06/27 10:13:31;;;;;;;8.57;4.65;;;;;;;20.97;59.45;101490.09;4971268;28;20039;-69
2022/06/27 10:15:58;;;;;;;8.55;4.85;;;;;;;21.01;59.26;101490.34;4974434;28;20022;-69
2022/06/27 10:18:24;;;;;;;8.00;4.68;;;;;;;21.02;59.25;101484.38;4974353;28;20069;-70
2022/06/27 10:20:51;;;;;;;6.55;3.90;;;;;;;21.08;59.15;101485.13;4975152;28;20059;-68
2022/06/27 10:23:25;;;;;;;7.30;4.90;;;;;;;21.02;58.33;101486.34;4965832;28;20027;-68
2022/06/27 10:25:51;;;;;;;9.73;5.32;;;;;;;20.98;57.86;101485.28;4965955;28;20085;-68
2022/06/27 10:28:18;;;;;;;7.72;4.05;;;;;;;21.09;58.77;101478.34;4969342;28;20030;-67
2022/06/27 10:30:53;;;;;;;6.70;3.90;;;;;;;21.07;59.15;101480.66;4974112;28;20179;-68
2022/06/27 10:33:19;;;;;;;6.90;4.30;;;;;;;21.01;58.90;101487.50;4969586;28;20058;-67
2022/06/27 10:36:11;;;;;;;12.55;6.00;;;;;;;21.03;59.19;101490.88;4970932;28;20077;-66
2022/06/27 10:38:39;;;;;;;6.63;4.47;;;;;;;21.02;58.95;101486.34;4971265;28;20118;-66
2022/06/27 10:41:06;;;;;;;7.18;4.32;;;;;;;21.03;59.00;101486.06;4963584;28;20632;-68
2022/06/27 10:43:37;;;;;;;8.88;4.10;;;;;;;20.90;56.49;101489.66;4967328;28;20042;-67
2022/06/27 10:46:09;;;;;;;6.60;4.45;;;;;;;20.91;58.16;101507.44;4971524;28;20046;-70
2022/06/27 10:48:38;;;;;;;7.97;4.27;;;;;;;20.98;58.78;101497.41;4976643;28;20549;-71
2022/06/27 10:51:19;;;;;;;6.10;3.65;;;;;;;20.99;59.00;101492.63;4969854;28;20314;-69
2022/06/27 10:53:45;;;;;;;6.85;4.55;;;;;;;20.92;57.68;101497.84;4989145;28;20042;-71
2022/06/27 10:56:29;;;;;;;8.43;4.43;;;;;;;20.93;58.63;101493.84;4966242;28;20461;-71
2022/06/27 10:58:58;;;;;;;11.52;4.10;;;;;;;20.90;58.19;101500.94;4973015;28;20122;-71
2022/06/27 11:01:24;;;;;;;8.70;4.05;;;;;;;20.88;57.97;101500.44;4968477;28;20031;-71
2022/06/27 11:03:50;;;;;;;7.45;3.97;;;;;;;20.86;58.14;101504.69;4957419;28;20103;-72
2022/06/27 11:06:16;;;;;;;9.02;3.63;;;;;;;20.90;58.36;101502.94;4964640;28;20046;-75
2022/06/27 11:08:46;;;;;;;7.50;3.75;;;;;;;20.88;58.71;101503.25;4974648;28;20117;-74
2022/06/27 11:11:19;;;;;;;8.00;3.90;;;;;;;20.93;58.65;101503.16;4969810;28;20027;-72
2022/06/27 11:13:56;;;;;;;7.40;4.57;;;;;;;20.92;58.43;101511.94;4966168;28;20051;-72